sensor_id;sensor_type;location;lat;lon;timestamp;pressure;altitude;pressure_sealevel;temperature;humidity
14885;BME280;7534;50.762;7.000;2023-03-03T00:01:23;88966.56;;;-143.16;71.28
14885;BME280;7534;50.762;7.000;2023-03-03T00:03:53;88918.09;;;-143.16;71.06
14885;BME280;7534;50.762;7.000;2023-03-03T00:06:19;88948.38;;;-143.16;71.43
14885;BME280;7534;50.762;7.000;2023-03-03T00:08:46;88928.19;;;-143.16;73.21
14885;BME280;7534;50.762;7.000;2023-03-03T00:11:12;88924.16;;;-143.16;73.74
14885;BME280;7534;50.762;7.000;2023-03-03T00:13:51;88908.00;;;-143.16;74.14
14885;BME280;7534;50.762;7.000;2023-03-03T00:16:36;88908.00;;;-143.16;74.33
14885;BME280;7534;50.762;7.000;2023-03-03T00:19:02;88905.97;;;-143.16;74.33
14885;BME280;7534;50.762;7.000;2023-03-03T00:21:49;88871.66;;;-143.16;74.21
14885;BME280;7534;50.762;7.000;2023-03-03T00:24:24;88903.97;;;-143.16;73.81
14885;BME280;7534;50.762;7.000;2023-03-03T00:26:53;88819.16;;;-143.16;73.38
14885;BME280;7534;50.762;7.000;2023-03-03T00:29:59;88964.53;;;-143.16;73.87
14885;BME280;7534;50.762;7.000;2023-03-03T00:32:43;88918.09;;;-143.16;73.70
14885;BME280;7534;50.762;7.000;2023-03-03T00:35:27;88922.13;;;-143.16;74.17
14885;BME280;7534;50.762;7.000;2023-03-03T00:37:59;88837.34;;;-143.16;74.15
14885;BME280;7534;50.762;7.000;2023-03-03T00:40:39;88849.44;;;-143.16;74.02
14885;BME280;7534;50.762;7.000;2023-03-03T00:43:34;88930.22;;;-143.16;74.24
14885;BME280;7534;50.762;7.000;2023-03-03T00:46:00;88881.75;;;-143.16;74.67
14885;BME280;7534;50.762;7.000;2023-03-03T00:51:28;88855.50;;;-143.16;74.99
14885;BME280;7534;50.762;7.000;2023-03-03T00:53:55;88887.81;;;-143.16;74.82
14885;BME280;7534;50.762;7.000;2023-03-03T00:56:22;88732.34;;;-143.16;74.94
14885;BME280;7534;50.762;7.000;2023-03-03T00:58:49;88871.66;;;-143.16;74.92
14885;BME280;7534;50.762;7.000;2023-03-03T01:01:16;88944.34;;;-143.16;75.68
14885;BME280;7534;50.762;7.000;2023-03-03T01:03:43;88877.72;;;-143.16;76.08
14885;BME280;7534;50.762;7.000;2023-03-03T01:06:10;88948.38;;;-143.16;76.47
14885;BME280;7534;50.762;7.000;2023-03-03T01:08:36;88839.34;;;-143.16;76.69
14885;BME280;7534;50.762;7.000;2023-03-03T01:11:12;88855.50;;;-143.16;76.91
14885;BME280;7534;50.762;7.000;2023-03-03T01:13:43;88976.66;;;-143.16;77.20
14885;BME280;7534;50.762;7.000;2023-03-03T01:16:10;88893.88;;;-143.16;77.19
14885;BME280;7534;50.762;7.000;2023-03-03T01:18:37;88964.53;;;-143.16;76.72
14885;BME280;7534;50.762;7.000;2023-03-03T01:21:04;88855.50;;;-143.16;76.55
14885;BME280;7534;50.762;7.000;2023-03-03T01:23:30;88899.94;;;-143.16;76.73
14885;BME280;7534;50.762;7.000;2023-03-03T01:25:56;88855.50;;;-143.16;77.00
14885;BME280;7534;50.762;7.000;2023-03-03T01:28:21;88928.19;;;-143.16;76.95
14885;BME280;7534;50.762;7.000;2023-03-03T01:30:48;88780.81;;;-143.16;77.01
14885;BME280;7534;50.762;7.000;2023-03-03T01:33:14;88948.38;;;-143.16;76.66
14885;BME280;7534;50.762;7.000;2023-03-03T01:35:47;88948.38;;;-143.16;76.73
14885;BME280;7534;50.762;7.000;2023-03-03T01:38:14;88930.22;;;-143.16;77.10
14885;BME280;7534;50.762;7.000;2023-03-03T01:40:40;88803.00;;;-143.16;77.20
14885;BME280;7534;50.762;7.000;2023-03-03T01:43:06;88893.88;;;-143.16;77.17
14885;BME280;7534;50.762;7.000;2023-03-03T01:48:36;88903.97;;;-143.16;76.91
14885;BME280;7534;50.762;7.000;2023-03-03T01:51:26;88936.28;;;-143.16;76.74
14885;BME280;7534;50.762;7.000;2023-03-03T01:54:11;88946.38;;;-143.16;76.91
14885;BME280;7534;50.762;7.000;2023-03-03T01:56:41;89027.13;;;-143.16;77.27
14885;BME280;7534;50.762;7.000;2023-03-03T01:59:24;88962.53;;;-143.16;77.51
14885;BME280;7534;50.762;7.000;2023-03-03T02:01:52;88910.03;;;-143.16;77.78
14885;BME280;7534;50.762;7.000;2023-03-03T02:04:18;88972.63;;;-143.16;77.46
14885;BME280;7534;50.762;7.000;2023-03-03T02:06:52;88936.28;;;-143.16;77.58
14885;BME280;7534;50.762;7.000;2023-03-03T02:09:57;88984.72;;;-143.16;77.81
14885;BME280;7534;50.762;7.000;2023-03-03T02:12:55;88984.72;;;-143.16;78.06
14885;BME280;7534;50.762;7.000;2023-03-03T02:15:27;88821.19;;;-143.16;78.13
14885;BME280;7534;50.762;7.000;2023-03-03T02:17:57;88738.41;;;-143.16;78.57
14885;BME280;7534;50.762;7.000;2023-03-03T02:24:02;88958.47;;;-143.16;79.43
14885;BME280;7534;50.762;7.000;2023-03-03T02:26:36;88956.47;;;-143.16;79.22
14885;BME280;7534;50.762;7.000;2023-03-03T02:29:04;88954.44;;;-143.16;79.25
14885;BME280;7534;50.762;7.000;2023-03-03T02:31:31;88938.28;;;-143.16;79.01
14885;BME280;7534;50.762;7.000;2023-03-03T02:33:57;88905.97;;;-143.16;79.07
14885;BME280;7534;50.762;7.000;2023-03-03T02:36:30;88958.47;;;-143.16;78.89
14885;BME280;7534;50.762;7.000;2023-03-03T02:39:21;88996.84;;;-143.16;79.26
14885;BME280;7534;50.762;7.000;2023-03-03T02:42:08;88938.28;;;-143.16;79.16
14885;BME280;7534;50.762;7.000;2023-03-03T02:44:38;88966.56;;;-143.16;79.25
14885;BME280;7534;50.762;7.000;2023-03-03T02:47:04;88895.88;;;-143.16;79.05
14885;BME280;7534;50.762;7.000;2023-03-03T02:49:32;89255.31;;;-143.16;79.08
14885;BME280;7534;50.762;7.000;2023-03-03T02:52:01;88901.94;;;-143.16;78.79
14885;BME280;7534;50.762;7.000;2023-03-03T02:54:29;88887.81;;;-143.16;78.74
14885;BME280;7534;50.762;7.000;2023-03-03T02:56:57;88938.28;;;-143.16;78.56
14885;BME280;7534;50.762;7.000;2023-03-03T02:59:22;88934.25;;;-143.16;78.72
14885;BME280;7534;50.762;7.000;2023-03-03T03:01:49;88936.28;;;-143.16;78.78
14885;BME280;7534;50.762;7.000;2023-03-03T03:04:21;89061.47;;;-143.16;78.88
14885;BME280;7534;50.762;7.000;2023-03-03T03:06:47;88980.69;;;-143.16;78.68
14885;BME280;7534;50.762;7.000;2023-03-03T03:09:15;88956.47;;;-143.16;78.79
14885;BME280;7534;50.762;7.000;2023-03-03T03:11:41;88968.56;;;-143.16;78.73
14885;BME280;7534;50.762;7.000;2023-03-03T03:14:09;88960.50;;;-143.16;79.20
14885;BME280;7534;50.762;7.000;2023-03-03T03:16:35;88972.63;;;-143.16;78.98
14885;BME280;7534;50.762;7.000;2023-03-03T03:19:03;89010.97;;;-143.16;79.27
14885;BME280;7534;50.762;7.000;2023-03-03T03:21:29;89000.88;;;-143.16;79.57
14885;BME280;7534;50.762;7.000;2023-03-03T03:23:55;89004.91;;;-143.16;79.85
14885;BME280;7534;50.762;7.000;2023-03-03T03:26:21;88990.78;;;-143.16;79.73
14885;BME280;7534;50.762;7.000;2023-03-03T03:28:48;89004.91;;;-143.16;79.67
14885;BME280;7534;50.762;7.000;2023-03-03T03:31:15;88960.50;;;-143.16;79.40
14885;BME280;7534;50.762;7.000;2023-03-03T03:33:41;89249.25;;;-143.16;79.43
14885;BME280;7534;50.762;7.000;2023-03-03T03:36:07;88918.09;;;-143.16;79.67
14885;BME280;7534;50.762;7.000;2023-03-03T03:38:34;88952.41;;;-143.16;79.92
14885;BME280;7534;50.762;7.000;2023-03-03T03:41:02;89019.06;;;-143.16;79.76
14885;BME280;7534;50.762;7.000;2023-03-03T03:43:27;88992.81;;;-143.16;79.88
14885;BME280;7534;50.762;7.000;2023-03-03T03:45:53;88970.59;;;-143.16;79.83
14885;BME280;7534;50.762;7.000;2023-03-03T03:48:19;89008.97;;;-143.16;79.71
14885;BME280;7534;50.762;7.000;2023-03-03T03:50:49;88891.84;;;-143.16;79.83
14885;BME280;7534;50.762;7.000;2023-03-03T03:53:16;89027.13;;;-143.16;79.90
14885;BME280;7534;50.762;7.000;2023-03-03T03:55:44;88920.13;;;-143.16;79.93
14885;BME280;7534;50.762;7.000;2023-03-03T03:58:14;89017.03;;;-143.16;80.02
14885;BME280;7534;50.762;7.000;2023-03-03T04:00:42;89037.22;;;-143.16;80.30
14885;BME280;7534;50.762;7.000;2023-03-03T04:03:09;88976.66;;;-143.16;80.23
14885;BME280;7534;50.762;7.000;2023-03-03T04:05:35;89004.91;;;-143.16;80.23
14885;BME280;7534;50.762;7.000;2023-03-03T04:08:02;88982.72;;;-143.16;80.61
14885;BME280;7534;50.762;7.000;2023-03-03T04:10:28;88899.94;;;-143.16;80.72
14885;BME280;7534;50.762;7.000;2023-03-03T04:12:53;89006.94;;;-143.16;80.86
14885;BME280;7534;50.762;7.000;2023-03-03T04:15:19;88948.38;;;-143.16;80.84
14885;BME280;7534;50.762;7.000;2023-03-03T04:17:45;88986.75;;;-143.16;80.84
14885;BME280;7534;50.762;7.000;2023-03-03T04:20:13;89013.00;;;-143.16;80.84
14885;BME280;7534;50.762;7.000;2023-03-03T04:22:41;89021.06;;;-143.16;81.36
14885;BME280;7534;50.762;7.000;2023-03-03T04:25:09;89010.97;;;-143.16;81.71
14885;BME280;7534;50.762;7.000;2023-03-03T04:27:37;88924.16;;;-143.16;81.85
14885;BME280;7534;50.762;7.000;2023-03-03T04:30:04;88976.66;;;-143.16;81.90
14885;BME280;7534;50.762;7.000;2023-03-03T04:32:31;89004.91;;;-143.16;81.64
14885;BME280;7534;50.762;7.000;2023-03-03T04:34:58;89017.03;;;-143.16;81.58
14885;BME280;7534;50.762;7.000;2023-03-03T04:37:24;88928.19;;;-143.16;81.53
14885;BME280;7534;50.762;7.000;2023-03-03T04:39:50;89063.47;;;-143.16;81.40
14885;BME280;7534;50.762;7.000;2023-03-03T04:42:16;88980.69;;;-143.16;81.20
14885;BME280;7534;50.762;7.000;2023-03-03T04:44:42;89010.97;;;-143.16;81.05
14885;BME280;7534;50.762;7.000;2023-03-03T04:47:07;88990.78;;;-143.16;81.38
14885;BME280;7534;50.762;7.000;2023-03-03T04:49:33;88948.38;;;-143.16;81.65
14885;BME280;7534;50.762;7.000;2023-03-03T04:51:59;88978.66;;;-143.16;81.63
14885;BME280;7534;50.762;7.000;2023-03-03T04:54:24;88996.84;;;-143.16;82.02
14885;BME280;7534;50.762;7.000;2023-03-03T04:56:50;88970.59;;;-143.16;82.04
14885;BME280;7534;50.762;7.000;2023-03-03T04:59:16;88952.41;;;-143.16;82.40
14885;BME280;7534;50.762;7.000;2023-03-03T05:01:42;88910.03;;;-143.16;82.66
14885;BME280;7534;50.762;7.000;2023-03-03T05:04:07;88936.28;;;-143.16;83.01
14885;BME280;7534;50.762;7.000;2023-03-03T05:06:33;88982.72;;;-143.16;82.76
14885;BME280;7534;50.762;7.000;2023-03-03T05:08:59;88960.50;;;-143.16;82.53
14885;BME280;7534;50.762;7.000;2023-03-03T05:11:24;88817.16;;;-143.16;82.37
14885;BME280;7534;50.762;7.000;2023-03-03T05:13:50;88924.16;;;-143.16;82.45
14885;BME280;7534;50.762;7.000;2023-03-03T05:16:16;89049.34;;;-143.16;82.19
14885;BME280;7534;50.762;7.000;2023-03-03T05:18:42;88885.78;;;-143.16;82.39
14885;BME280;7534;50.762;7.000;2023-03-03T05:21:10;88914.06;;;-143.16;81.84
14885;BME280;7534;50.762;7.000;2023-03-03T05:23:36;88962.53;;;-143.16;81.99
14885;BME280;7534;50.762;7.000;2023-03-03T05:26:02;88893.88;;;-143.16;81.60
14885;BME280;7534;50.762;7.000;2023-03-03T05:28:28;88922.13;;;-143.16;81.41
14885;BME280;7534;50.762;7.000;2023-03-03T05:30:54;88960.50;;;-143.16;81.16
14885;BME280;7534;50.762;7.000;2023-03-03T05:33:20;89186.66;;;-143.16;80.84
14885;BME280;7534;50.762;7.000;2023-03-03T05:35:45;88910.03;;;-143.16;80.54
14885;BME280;7534;50.762;7.000;2023-03-03T05:38:12;88928.19;;;-143.16;80.54
14885;BME280;7534;50.762;7.000;2023-03-03T05:40:38;88928.19;;;-143.16;80.74
14885;BME280;7534;50.762;7.000;2023-03-03T05:43:04;88879.75;;;-143.16;80.36
14885;BME280;7534;50.762;7.000;2023-03-03T05:45:29;88958.47;;;-143.16;79.94
14885;BME280;7534;50.762;7.000;2023-03-03T05:47:55;88918.09;;;-143.16;79.99
14885;BME280;7534;50.762;7.000;2023-03-03T05:50:22;88968.56;;;-143.16;79.47
14885;BME280;7534;50.762;7.000;2023-03-03T05:52:49;88694.00;;;-143.16;79.45
14885;BME280;7534;50.762;7.000;2023-03-03T05:55:15;89190.69;;;-143.16;79.39
14885;BME280;7534;50.762;7.000;2023-03-03T05:57:41;88891.84;;;-143.16;79.29
14885;BME280;7534;50.762;7.000;2023-03-03T06:00:07;88768.69;;;-143.16;79.06
14885;BME280;7534;50.762;7.000;2023-03-03T06:02:34;88879.75;;;-143.16;78.94
14885;BME280;7534;50.762;7.000;2023-03-03T06:05:00;88899.94;;;-143.16;78.44
14885;BME280;7534;50.762;7.000;2023-03-03T06:07:26;88920.13;;;-143.16;77.90
14885;BME280;7534;50.762;7.000;2023-03-03T06:09:52;88871.66;;;-143.16;77.85
14885;BME280;7534;50.762;7.000;2023-03-03T06:12:17;88928.19;;;-143.16;77.80
14885;BME280;7534;50.762;7.000;2023-03-03T06:14:43;88948.38;;;-143.16;77.43
14885;BME280;7534;50.762;7.000;2023-03-03T06:17:09;88778.78;;;-143.16;77.49
14885;BME280;7534;50.762;7.000;2023-03-03T06:19:35;88889.84;;;-143.16;76.97
14885;BME280;7534;50.762;7.000;2023-03-03T06:22:01;88859.53;;;-143.16;77.06
14885;BME280;7534;50.762;7.000;2023-03-03T06:24:26;88903.97;;;-143.16;77.30
14885;BME280;7534;50.762;7.000;2023-03-03T06:26:56;88930.22;;;-143.16;77.18
14885;BME280;7534;50.762;7.000;2023-03-03T06:29:22;88920.13;;;-143.16;76.86
14885;BME280;7534;50.762;7.000;2023-03-03T06:31:47;88859.53;;;-143.16;76.69
14885;BME280;7534;50.762;7.000;2023-03-03T06:34:13;88877.72;;;-143.16;76.66
14885;BME280;7534;50.762;7.000;2023-03-03T06:36:39;88932.22;;;-143.16;76.31
14885;BME280;7534;50.762;7.000;2023-03-03T06:39:04;88920.13;;;-143.16;76.25
14885;BME280;7534;50.762;7.000;2023-03-03T06:41:30;88908.00;;;-143.16;76.23
14885;BME280;7534;50.762;7.000;2023-03-03T06:43:56;88883.78;;;-143.16;76.35
14885;BME280;7534;50.762;7.000;2023-03-03T06:46:22;88908.00;;;-143.16;76.15
14885;BME280;7534;50.762;7.000;2023-03-03T06:48:48;88885.78;;;-143.16;76.02
14885;BME280;7534;50.762;7.000;2023-03-03T06:51:37;88924.16;;;-143.16;75.51
14885;BME280;7534;50.762;7.000;2023-03-03T06:54:20;88891.84;;;-143.16;75.20
14885;BME280;7534;50.762;7.000;2023-03-03T06:56:48;88883.78;;;-143.16;75.53
14885;BME280;7534;50.762;7.000;2023-03-03T06:59:17;88883.78;;;-143.16;75.31
14885;BME280;7534;50.762;7.000;2023-03-03T07:01:46;88883.78;;;-143.16;74.90
14885;BME280;7534;50.762;7.000;2023-03-03T07:04:27;88916.09;;;-143.16;74.17
14885;BME280;7534;50.762;7.000;2023-03-03T07:07:22;88883.78;;;-143.16;73.66
14885;BME280;7534;50.762;7.000;2023-03-03T07:09:52;88881.75;;;-143.16;73.38
14885;BME280;7534;50.762;7.000;2023-03-03T07:12:27;88871.66;;;-143.16;73.65
14885;BME280;7534;50.762;7.000;2023-03-03T07:15:17;88891.84;;;-143.16;72.97
14885;BME280;7534;50.762;7.000;2023-03-03T07:17:48;88849.44;;;-143.16;72.28
14885;BME280;7534;50.762;7.000;2023-03-03T07:20:28;88877.72;;;-143.16;72.51
14885;BME280;7534;50.762;7.000;2023-03-03T07:22:56;88859.53;;;-143.16;72.85
14885;BME280;7534;50.762;7.000;2023-03-03T07:25:30;88897.91;;;-143.16;72.82
14885;BME280;7534;50.762;7.000;2023-03-03T07:28:27;88883.78;;;-143.16;72.12
14885;BME280;7534;50.762;7.000;2023-03-03T07:30:56;88887.81;;;-143.16;72.05
14885;BME280;7534;50.762;7.000;2023-03-03T07:33:34;88865.59;;;-143.16;72.07
14885;BME280;7534;50.762;7.000;2023-03-03T07:36:02;88837.34;;;-143.16;71.69
14885;BME280;7534;50.762;7.000;2023-03-03T07:38:36;88908.00;;;-143.16;72.59
14885;BME280;7534;50.762;7.000;2023-03-03T07:41:12;88901.94;;;-143.16;72.17
14885;BME280;7534;50.762;7.000;2023-03-03T07:43:47;88901.94;;;-143.16;71.77
14885;BME280;7534;50.762;7.000;2023-03-03T07:46:35;88887.81;;;-143.16;72.17
14885;BME280;7534;50.762;7.000;2023-03-03T07:49:33;88845.41;;;-143.16;71.40
14885;BME280;7534;50.762;7.000;2023-03-03T07:52:00;88861.56;;;-143.16;70.91
14885;BME280;7534;50.762;7.000;2023-03-03T07:54:35;88901.94;;;-143.16;70.94
14885;BME280;7534;50.762;7.000;2023-03-03T08:03:02;88851.47;;;-143.16;70.89
14885;BME280;7534;50.762;7.000;2023-03-03T08:05:40;88899.94;;;-143.16;70.81
14885;BME280;7534;50.762;7.000;2023-03-03T08:10:51;88881.75;;;-143.16;69.87
14885;BME280;7534;50.762;7.000;2023-03-03T08:13:39;88881.75;;;-143.16;69.37
14885;BME280;7534;50.762;7.000;2023-03-03T08:18:41;88855.50;;;-143.16;68.36
14885;BME280;7534;50.762;7.000;2023-03-03T08:21:20;88867.63;;;-143.16;69.06
14885;BME280;7534;50.762;7.000;2023-03-03T08:23:46;88867.63;;;-143.16;68.89
14885;BME280;7534;50.762;7.000;2023-03-03T08:26:13;88839.34;;;-143.16;68.55
14885;BME280;7534;50.762;7.000;2023-03-03T08:28:41;88855.50;;;-143.16;68.54
14885;BME280;7534;50.762;7.000;2023-03-03T08:31:07;88841.38;;;-143.16;68.13
14885;BME280;7534;50.762;7.000;2023-03-03T08:33:33;88899.94;;;-143.16;67.53
14885;BME280;7534;50.762;7.000;2023-03-03T08:35:59;88794.94;;;-143.16;67.18
14885;BME280;7534;50.762;7.000;2023-03-03T08:38:24;88776.75;;;-143.16;66.59
14885;BME280;7534;50.762;7.000;2023-03-03T08:40:50;88803.00;;;-143.16;66.16
14885;BME280;7534;50.762;7.000;2023-03-03T08:43:16;88756.56;;;-143.16;65.80
14885;BME280;7534;50.762;7.000;2023-03-03T08:45:47;88752.53;;;-143.16;64.59
14885;BME280;7534;50.762;7.000;2023-03-03T08:48:14;88720.22;;;-143.16;64.36
14885;BME280;7534;50.762;7.000;2023-03-03T08:50:45;88782.81;;;-143.16;63.75
14885;BME280;7534;50.762;7.000;2023-03-03T08:53:12;88766.66;;;-143.16;63.04
14885;BME280;7534;50.762;7.000;2023-03-03T08:55:41;88796.94;;;-143.16;63.26
14885;BME280;7534;50.762;7.000;2023-03-03T08:58:07;88750.53;;;-143.16;62.74
14885;BME280;7534;50.762;7.000;2023-03-03T09:00:33;88776.75;;;-143.16;62.95
14885;BME280;7534;50.762;7.000;2023-03-03T09:02:59;88768.69;;;-143.16;62.46
14885;BME280;7534;50.762;7.000;2023-03-03T09:05:26;88780.81;;;-143.16;62.46
14885;BME280;7534;50.762;7.000;2023-03-03T09:07:53;88736.38;;;-143.16;62.17
14885;BME280;7534;50.762;7.000;2023-03-03T09:10:23;88726.28;;;-143.16;62.02
14885;BME280;7534;50.762;7.000;2023-03-03T09:12:59;88770.72;;;-143.16;62.05
14885;BME280;7534;50.762;7.000;2023-03-03T09:15:30;88770.72;;;-143.16;61.20
14885;BME280;7534;50.762;7.000;2023-03-03T09:18:21;88833.28;;;-143.16;60.97
14885;BME280;7534;50.762;7.000;2023-03-03T09:20:54;88748.50;;;-143.16;61.63
14885;BME280;7534;50.762;7.000;2023-03-03T09:23:34;88762.63;;;-143.16;61.76
14885;BME280;7534;50.762;7.000;2023-03-03T09:29:27;88712.16;;;-143.16;61.12
14885;BME280;7534;50.762;7.000;2023-03-03T09:34:37;88706.09;;;-143.16;60.75
14885;BME280;7534;50.762;7.000;2023-03-03T09:37:35;88714.19;;;-143.16;60.62
14885;BME280;7534;50.762;7.000;2023-03-03T09:43:21;88708.13;;;-143.16;60.65
14885;BME280;7534;50.762;7.000;2023-03-03T09:46:03;88750.53;;;-143.16;60.66
14885;BME280;7534;50.762;7.000;2023-03-03T09:48:40;88819.16;;;-143.16;60.45
14885;BME280;7534;50.762;7.000;2023-03-03T09:54:04;88819.16;;;-143.16;61.74
14885;BME280;7534;50.762;7.000;2023-03-03T09:56:46;88843.41;;;-143.16;61.24
14885;BME280;7534;50.762;7.000;2023-03-03T10:14:42;88742.44;;;-143.16;62.16
14885;BME280;7534;50.762;7.000;2023-03-03T10:23:09;88774.75;;;-143.16;61.37
14885;BME280;7534;50.762;7.000;2023-03-03T10:25:49;88750.53;;;-143.16;61.80
14885;BME280;7534;50.762;7.000;2023-03-03T10:28:44;88718.22;;;-143.16;61.22
14885;BME280;7534;50.762;7.000;2023-03-03T10:31:43;88732.34;;;-143.16;60.59
14885;BME280;7534;50.762;7.000;2023-03-03T10:46:34;88702.06;;;-143.16;58.54
14885;BME280;7534;50.762;7.000;2023-03-03T10:49:18;88698.03;;;-143.16;58.04
14885;BME280;7534;50.762;7.000;2023-03-03T10:52:21;88720.22;;;-143.16;57.49
14885;BME280;7534;50.762;7.000;2023-03-03T10:55:25;88698.03;;;-143.16;58.00
14885;BME280;7534;50.762;7.000;2023-03-03T10:58:36;88685.91;;;-143.16;57.93
14885;BME280;7534;50.762;7.000;2023-03-03T11:01:29;88689.94;;;-143.16;57.39
14885;BME280;7534;50.762;7.000;2023-03-03T11:04:18;88698.03;;;-143.16;57.20
14885;BME280;7534;50.762;7.000;2023-03-03T11:07:25;88661.69;;;-143.16;57.22
14885;BME280;7534;50.762;7.000;2023-03-03T11:10:19;88645.53;;;-143.16;56.34
14885;BME280;7534;50.762;7.000;2023-03-03T11:13:04;88633.41;;;-143.16;55.99
14885;BME280;7534;50.762;7.000;2023-03-03T11:15:48;88633.41;;;-143.16;55.60
14885;BME280;7534;50.762;7.000;2023-03-03T11:21:46;88613.22;;;-143.16;55.01
14885;BME280;7534;50.762;7.000;2023-03-03T11:27:31;88605.16;;;-143.16;54.04
14885;BME280;7534;50.762;7.000;2023-03-03T11:33:09;88580.94;;;-143.16;53.43
14885;BME280;7534;50.762;7.000;2023-03-03T11:35:44;88597.06;;;-143.16;52.75
14885;BME280;7534;50.762;7.000;2023-03-03T11:38:41;88580.94;;;-143.16;52.41
14885;BME280;7534;50.762;7.000;2023-03-03T11:41:28;88554.69;;;-143.16;51.19
14885;BME280;7534;50.762;7.000;2023-03-03T11:44:36;88556.69;;;-143.16;51.61
14885;BME280;7534;50.762;7.000;2023-03-03T11:47:03;88548.63;;;-143.16;51.99
14885;BME280;7534;50.762;7.000;2023-03-03T11:49:49;88576.88;;;-143.16;51.18
14885;BME280;7534;50.762;7.000;2023-03-03T11:52:50;88540.53;;;-143.16;51.48
14885;BME280;7534;50.762;7.000;2023-03-03T11:55:35;88542.56;;;-143.16;51.66
14885;BME280;7534;50.762;7.000;2023-03-03T11:58:34;88550.66;;;-143.16;50.94
14885;BME280;7534;50.762;7.000;2023-03-03T12:01:20;88568.81;;;-143.16;50.66
14885;BME280;7534;50.762;7.000;2023-03-03T12:03:57;88530.47;;;-143.16;50.20
14885;BME280;7534;50.762;7.000;2023-03-03T12:12:51;88463.84;;;-143.16;48.48
14885;BME280;7534;50.762;7.000;2023-03-03T12:19:24;88467.88;;;-143.16;49.83
14885;BME280;7534;50.762;7.000;2023-03-03T12:22:30;88605.16;;;-143.16;49.67
14885;BME280;7534;50.762;7.000;2023-03-03T12:25:25;88498.16;;;-143.16;49.64
14885;BME280;7534;50.762;7.000;2023-03-03T12:28:19;88554.69;;;-143.16;48.53
14885;BME280;7534;50.762;7.000;2023-03-03T12:34:40;88411.34;;;-143.16;46.92
14885;BME280;7534;50.762;7.000;2023-03-03T12:37:41;88421.44;;;-143.16;47.54
14885;BME280;7534;50.762;7.000;2023-03-03T12:40:24;88368.94;;;-143.16;46.93
14885;BME280;7534;50.762;7.000;2023-03-03T12:43:27;88413.38;;;-143.16;46.91
14885;BME280;7534;50.762;7.000;2023-03-03T12:46:16;88484.03;;;-143.16;47.07
14885;BME280;7534;50.762;7.000;2023-03-03T12:48:46;88429.50;;;-143.16;46.67
14885;BME280;7534;50.762;7.000;2023-03-03T12:52:01;88370.97;;;-143.16;45.51
14885;BME280;7534;50.762;7.000;2023-03-03T12:57:34;88383.09;;;-143.16;45.76
14885;BME280;7534;50.762;7.000;2023-03-03T13:00:51;88346.75;;;-143.16;45.83
14885;BME280;7534;50.762;7.000;2023-03-03T13:06:31;88342.72;;;-143.16;44.44
14885;BME280;7534;50.762;7.000;2023-03-03T13:10:04;88294.25;;;-143.16;43.28
14885;BME280;7534;50.762;7.000;2023-03-03T13:12:26;88288.19;;;-143.16;42.61
14885;BME280;7534;50.762;7.000;2023-03-03T13:15:02;88257.91;;;-143.16;42.79
14885;BME280;7534;50.762;7.000;2023-03-03T13:20:20;88229.66;;;-143.16;42.39
14885;BME280;7534;50.762;7.000;2023-03-03T13:23:19;88284.16;;;-143.16;42.97
14885;BME280;7534;50.762;7.000;2023-03-03T13:26:04;88318.47;;;-143.16;42.91
14885;BME280;7534;50.762;7.000;2023-03-03T13:31:28;88439.59;;;-143.16;46.12
14885;BME280;7534;50.762;7.000;2023-03-03T13:33:58;88435.56;;;-143.16;46.05
14885;BME280;7534;50.762;7.000;2023-03-03T13:36:42;88463.84;;;-143.16;45.82
14885;BME280;7534;50.762;7.000;2023-03-03T13:42:29;88443.66;;;-143.16;47.44
14885;BME280;7534;50.762;7.000;2023-03-03T13:44:59;88475.94;;;-143.16;47.92
14885;BME280;7534;50.762;7.000;2023-03-03T13:50:21;88467.88;;;-143.16;47.65
14885;BME280;7534;50.762;7.000;2023-03-03T13:53:02;88457.78;;;-143.16;48.06
14885;BME280;7534;50.762;7.000;2023-03-03T13:55:43;88488.06;;;-143.16;48.19
14885;BME280;7534;50.762;7.000;2023-03-03T13:58:43;88423.47;;;-143.16;47.74
14885;BME280;7534;50.762;7.000;2023-03-03T14:01:34;88435.56;;;-143.16;48.19
14885;BME280;7534;50.762;7.000;2023-03-03T14:04:33;88482.00;;;-143.16;49.10
14885;BME280;7534;50.762;7.000;2023-03-03T14:07:20;88526.41;;;-143.16;49.65
14885;BME280;7534;50.762;7.000;2023-03-03T14:10:17;88657.66;;;-143.16;50.33
14885;BME280;7534;50.762;7.000;2023-03-03T14:13:11;88542.56;;;-143.16;50.79
14885;BME280;7534;50.762;7.000;2023-03-03T14:16:03;88502.19;;;-143.16;51.12
14885;BME280;7534;50.762;7.000;2023-03-03T14:19:02;88518.34;;;-143.16;50.02
14885;BME280;7534;50.762;7.000;2023-03-03T14:22:15;88461.81;;;-143.16;49.31
14885;BME280;7534;50.762;7.000;2023-03-03T14:25:09;88471.91;;;-143.16;48.07
14885;BME280;7534;50.762;7.000;2023-03-03T14:30:52;88459.78;;;-143.16;48.41
14885;BME280;7534;50.762;7.000;2023-03-03T14:33:28;88435.56;;;-143.16;47.89
14885;BME280;7534;50.762;7.000;2023-03-03T14:38:38;88439.59;;;-143.16;47.39
14885;BME280;7534;50.762;7.000;2023-03-03T14:41:18;88439.59;;;-143.16;47.07
14885;BME280;7534;50.762;7.000;2023-03-03T14:43:59;88391.16;;;-143.16;46.43
14885;BME280;7534;50.762;7.000;2023-03-03T14:46:37;88383.09;;;-143.16;45.52
14885;BME280;7534;50.762;7.000;2023-03-03T14:49:15;88441.63;;;-143.16;46.02
14885;BME280;7534;50.762;7.000;2023-03-03T14:51:45;88447.69;;;-143.16;46.63
14885;BME280;7534;50.762;7.000;2023-03-03T14:54:23;88477.97;;;-143.16;48.20
14885;BME280;7534;50.762;7.000;2023-03-03T15:00:28;88508.25;;;-143.16;48.75
14885;BME280;7534;50.762;7.000;2023-03-03T15:03:09;88504.22;;;-143.16;49.04
14885;BME280;7534;50.762;7.000;2023-03-03T15:05:54;88528.44;;;-143.16;49.80
14885;BME280;7534;50.762;7.000;2023-03-03T15:08:35;88566.78;;;-143.16;49.68
14885;BME280;7534;50.762;7.000;2023-03-03T15:11:19;88584.97;;;-143.16;50.38
14885;BME280;7534;50.762;7.000;2023-03-03T15:13:49;88546.59;;;-143.16;50.79
14885;BME280;7534;50.762;7.000;2023-03-03T15:16:23;88556.69;;;-143.16;51.54
14885;BME280;7534;50.762;7.000;2023-03-03T15:21:34;88593.03;;;-143.16;52.57
14885;BME280;7534;50.762;7.000;2023-03-03T15:24:38;88611.22;;;-143.16;52.55
14885;BME280;7534;50.762;7.000;2023-03-03T15:27:34;88603.13;;;-143.16;52.77
14885;BME280;7534;50.762;7.000;2023-03-03T15:33:04;88572.84;;;-143.16;52.91